86PA weather

7D Farms Heliport
Tipton, Pennsylvania, United States

Public forecast

Using degrees Fahrenheit for public forecast. Weather courtesy of forecast.io.

METAR (pilot weather report)

Closest report is Altoona Blair County Airport, 20.9 nm (38.7 km) S. Retrieved 2019/05/21 02:53 UTC (21 minutes ago):

KAOO 210253Z AUTO 33011KT 10SM BKN030 OVC037 16/09 A2998 RMK AO2 SLP144 T01610094 51029

TAF (pilot weather forecast)

Closest forecast is Altoona Blair County Airport, 20.9 nm (38.7 km) S. Retrieved 2019/05/21 00:00 UTC (3 hours ago):

TAF KAOO 202357Z 2100/2124 29012KT P6SM SKC FM210200 31011KT P6SM BKN035 FM211500 34011G18KT P6SM SKC